Time;durP1;ratioP1;P1;durP2;ratioP2;P2;SDS_P1;SDS_P2;PMS_P1;PMS_P2;Temp;Humidity;BMP_temperature;BMP_pressure;BME280_temperature;BME280_humidity;BME280_pressure;Samples;Min_cycle;Max_cycle;Signal;HPM_P1;HPM_P2
2021/01/21 00:01:27;;;;;;;34.10;21.50;;;153.60;1868.80;;;;;;5027794;28;20403;-66
2021/01/21 00:03:53;;;;;;;41.85;22.75;;;153.60;1868.80;;;;;;5028287;28;20072;-66
2021/01/21 00:06:18;;;;;;;34.65;21.80;;;153.60;1868.80;;;;;;5026326;28;20095;-67
2021/01/21 00:08:44;;;;;;;37.95;23.48;;;153.60;1843.20;;;;;;5024436;28;20029;-67
2021/01/21 00:11:10;;;;;;;38.35;22.77;;;153.60;1868.80;;;;;;5025984;28;20038;-66
2021/01/21 00:13:36;;;;;;;39.28;23.55;;;153.60;1868.80;;;;;;5023826;28;20033;-66
2021/01/21 00:16:01;;;;;;;39.33;23.27;;;153.60;1843.20;;;;;;5024668;28;20034;-66
2021/01/21 00:18:27;;;;;;;44.13;24.58;;;153.60;1843.20;;;;;;5022800;28;20472;-66
2021/01/21 00:20:53;;;;;;;40.70;23.92;;;153.60;1868.80;;;;;;5006028;28;20116;-65
2021/01/21 00:23:19;;;;;;;40.65;25.20;;;153.60;1868.80;;;;;;5024979;28;20083;-67
2021/01/21 00:25:46;;;;;;;40.33;24.08;;;153.70;1868.80;;;;;;5024908;28;20030;-69
2021/01/21 00:28:12;;;;;;;40.00;23.88;;;153.70;1843.20;;;;;;5022045;28;20494;-68
2021/01/21 00:30:38;;;;;;;44.50;24.65;;;153.70;1843.20;;;;;;5024298;28;20030;-66
2021/01/21 00:33:04;;;;;;;44.55;25.05;;;153.70;1843.20;;;;;;5022441;28;20084;-66
2021/01/21 00:35:29;;;;;;;43.40;25.20;;;153.60;1843.20;;;;;;5024226;28;20041;-65
2021/01/21 00:37:55;;;;;;;45.55;26.67;;;153.60;1843.20;;;;;;5023959;28;20026;-65
2021/01/21 00:40:21;;;;;;;48.47;27.02;;;153.60;1843.20;;;;;;5023039;28;20029;-67
2021/01/21 00:42:47;;;;;;;42.28;24.95;;;153.60;1843.20;;;;;;5025078;28;20424;-66
2021/01/21 00:45:12;;;;;;;37.90;23.85;;;153.60;1843.20;;;;;;5023431;28;20113;-65
2021/01/21 00:47:38;;;;;;;37.20;23.05;;;153.60;1843.20;;;;;;5022133;28;20475;-66
2021/01/21 00:50:05;;;;;;;39.00;23.10;;;153.60;1843.20;;;;;;5013892;28;20072;-68
2021/01/21 00:52:30;;;;;;;36.83;23.42;;;153.60;1843.20;;;;;;5013920;28;20030;-68
2021/01/21 00:54:56;;;;;;;38.80;23.55;;;153.60;1843.20;;;;;;5014015;28;20036;-68
2021/01/21 00:57:22;;;;;;;34.42;21.85;;;153.60;1843.20;;;;;;5014087;28;20037;-67
2021/01/21 00:59:47;;;;;;;37.25;22.40;;;153.60;1843.20;;;;;;5014097;28;20022;-68
2021/01/21 01:02:13;;;;;;;32.45;20.58;;;153.60;1843.20;;;;;;5014244;28;20030;-68
2021/01/21 01:04:40;;;;;;;31.90;19.95;;;153.70;1920.00;;;;;;5013844;28;20037;-68
2021/01/21 01:07:06;;;;;;;36.33;21.42;;;153.70;1868.80;;;;;;5013905;28;20022;-66
2021/01/21 01:09:31;;;;;;;32.47;21.13;;;153.80;1843.20;;;;;;5018120;28;20037;-69
2021/01/21 01:11:57;;;;;;;36.17;22.13;;;153.80;1843.20;;;;;;5017758;28;20046;-67
2021/01/21 01:14:23;;;;;;;35.08;21.95;;;153.80;1843.20;;;;;;4999431;28;20120;-66
2021/01/21 01:16:49;;;;;;;34.13;21.40;;;153.80;1843.20;;;;;;5017869;28;20125;-67
2021/01/21 01:19:15;;;;;;;35.20;22.33;;;153.80;1843.20;;;;;;5017856;28;20101;-68
2021/01/21 01:21:42;;;;;;;31.50;20.77;;;153.70;1817.60;;;;;;5017825;28;20438;-68
2021/01/21 01:24:08;;;;;;;34.90;20.80;;;153.70;1843.20;;;;;;5017661;28;20026;-69
2021/01/21 01:26:34;;;;;;;32.35;20.75;;;153.70;1843.20;;;;;;5017722;28;20033;-67
2021/01/21 01:29:00;;;;;;;33.40;20.55;;;153.60;1843.20;;;;;;5017561;28;20034;-67
2021/01/21 01:31:26;;;;;;;35.17;21.27;;;153.60;1843.20;;;;;;5017618;28;20041;-67
2021/01/21 01:33:52;;;;;;;34.63;21.40;;;153.60;1843.20;;;;;;5017389;28;20388;-67
2021/01/21 01:36:18;;;;;;;37.38;22.35;;;153.70;1843.20;;;;;;4999728;28;20042;-66
2021/01/21 01:38:43;;;;;;;39.60;24.05;;;153.60;1843.20;;;;;;5017445;28;20083;-67
2021/01/21 01:41:09;;;;;;;39.40;24.70;;;153.70;1843.20;;;;;;5017483;28;20120;-67
2021/01/21 01:43:35;;;;;;;37.40;23.88;;;153.60;1843.20;;;;;;5017441;28;20452;-67
2021/01/21 01:46:03;;;;;;;42.13;24.83;;;153.70;1843.20;;;;;;5017406;28;20088;-68
2021/01/21 01:48:30;;;;;;;44.13;24.75;;;153.60;1817.60;;;;;;5017247;28;20029;-67
2021/01/21 01:50:58;;;;;;;40.75;24.60;;;153.60;1843.20;;;;;;5017277;28;20104;-67
2021/01/21 01:53:27;;;;;;;43.63;24.98;;;153.60;1843.20;;;;;;5017378;28;20038;-68
2021/01/21 01:55:52;;;;;;;43.17;25.08;;;153.60;1817.60;;;;;;5017138;28;20038;-67
2021/01/21 01:58:18;;;;;;;41.10;26.02;;;153.60;1817.60;;;;;;5017361;28;20018;-68
2021/01/21 02:00:48;;;;;;;44.00;26.42;;;153.60;1843.20;;;;;;5017145;28;20472;-69
2021/01/21 02:03:13;;;;;;;40.90;25.90;;;153.60;1817.60;;;;;;5017110;28;20022;-66
2021/01/21 02:05:40;;;;;;;44.70;27.02;;;153.60;1817.60;;;;;;5016957;28;20021;-67
2021/01/21 02:08:06;;;;;;;49.47;28.85;;;153.60;1817.60;;;;;;5016759;28;20030;-66
2021/01/21 02:10:32;;;;;;;46.28;27.67;;;153.60;1817.60;;;;;;5016712;28;20133;-67
2021/01/21 02:13:29;;;;;;;45.17;28.63;;;153.60;1817.60;;;;;;5017320;28;20054;-66
2021/01/21 02:16:29;;;;;;;47.85;28.55;;;153.60;1817.60;;;;;;4937084;29;20160;-66
2021/01/21 02:19:07;;;;;;;47.95;28.08;;;153.60;1817.60;;;;;;4932695;29;20126;-66
2021/01/21 02:22:02;;;;;;;44.28;27.25;;;153.60;1817.60;;;;;;4937301;29;20036;-67
2021/01/21 02:24:40;;;;;;;;;;;128.90;1817.60;;;;;;4937588;29;20051;-68
2021/01/21 02:27:06;;;;;;;44.22;26.50;;;128.90;1817.60;;;;;;4937330;29;19913;-68
2021/01/21 02:29:36;;;;;;;43.28;26.25;;;128.90;1843.20;;;;;;4936929;29;20547;-67
2021/01/21 02:32:06;;;;;;;44.05;27.45;;;128.90;1843.20;;;;;;4936969;29;20544;-67
2021/01/21 02:34:44;;;;;;;44.65;27.17;;;128.90;1843.20;;;;;;4936842;29;20032;-67
2021/01/21 02:37:16;;;;;;;43.05;27.85;;;128.90;1843.20;;;;;;4936766;29;20140;-67
2021/01/21 02:39:48;;;;;;;45.50;27.80;;;128.90;1843.20;;;;;;4936734;28;20028;-68
2021/01/21 02:42:14;;;;;;;48.63;28.67;;;153.60;1843.20;;;;;;4936834;29;20066;-68
2021/01/21 02:44:40;;;;;;;44.92;27.95;;;128.90;1843.20;;;;;;4936771;29;20039;-67
2021/01/21 02:47:06;;;;;;;43.10;26.08;;;153.60;1843.20;;;;;;4936676;29;20084;-67
2021/01/21 02:49:32;;;;;;;44.10;26.50;;;128.90;1843.20;;;;;;4936579;29;20115;-67
2021/01/21 02:52:16;;;;;;;40.72;25.48;;;128.90;1843.20;;;;;;4946265;28;20427;-67
2021/01/21 02:55:00;;;;;;;38.70;23.98;;;128.90;1843.20;;;;;;5015969;28;20030;-67
2021/01/21 02:57:52;;;;;;;39.20;24.70;;;128.90;1843.20;;;;;;5016153;28;20038;-67
2021/01/21 03:00:19;;;;;;;40.00;24.58;;;128.90;1843.20;;;;;;5016139;28;20056;-67
2021/01/21 03:02:54;;;;;;;40.15;24.70;;;128.90;1843.20;;;;;;5015874;28;20029;-68
2021/01/21 03:05:22;;;;;;;42.42;23.05;;;128.90;1843.20;;;;;;5015580;28;20479;-66
2021/01/21 03:07:48;;;;;;;41.85;23.98;;;128.90;1843.20;;;;;;5015930;28;20022;-66
2021/01/21 03:10:18;;;;;;;40.70;23.70;;;153.60;1843.20;;;;;;5015927;28;20061;-66
2021/01/21 03:12:51;;;;;;;37.00;23.27;;;128.90;1843.20;;;;;;4976777;28;20420;-66
2021/01/21 03:15:17;;;;;;;37.75;24.63;;;128.90;1843.20;;;;;;4976520;28;20027;-68
2021/01/21 03:17:43;;;;;;;41.83;24.23;;;128.90;1843.20;;;;;;4976431;28;20042;-67
2021/01/21 03:20:09;;;;;;;37.30;23.67;;;153.60;1843.20;;;;;;4976572;28;20030;-67
2021/01/21 03:22:35;;;;;;;38.08;24.25;;;128.90;1843.20;;;;;;4976551;28;20031;-67
2021/01/21 03:25:00;;;;;;;38.10;23.55;;;128.90;1817.60;;;;;;4976748;28;20041;-67
2021/01/21 03:27:26;;;;;;;37.10;23.80;;;128.90;1843.20;;;;;;4976531;28;20084;-67
2021/01/21 03:29:52;;;;;;;34.58;22.75;;;128.90;1843.20;;;;;;4976506;28;20039;-69
2021/01/21 03:32:17;;;;;;;41.03;24.05;;;128.90;1843.20;;;;;;4975328;28;20102;-66
2021/01/21 03:34:43;;;;;;;39.45;24.05;;;128.90;1843.20;;;;;;4975983;28;20035;-66
2021/01/21 03:37:09;;;;;;;38.38;23.90;;;128.90;1843.20;;;;;;4976457;28;20042;-66
2021/01/21 03:39:34;;;;;;;42.50;24.10;;;128.80;1843.20;;;;;;4974885;28;20106;-67
2021/01/21 03:42:00;;;;;;;37.25;23.08;;;128.80;1843.20;;;;;;4974995;28;20023;-67
2021/01/21 03:44:26;;;;;;;40.08;24.73;;;128.80;1843.20;;;;;;4976059;28;20525;-67
2021/01/21 03:46:51;;;;;;;34.22;23.77;;;128.80;1843.20;;;;;;4976267;28;20035;-67
2021/01/21 03:49:17;;;;;;;36.90;23.50;;;128.80;1843.20;;;;;;4976027;28;20026;-66
2021/01/21 03:51:43;;;;;;;43.63;24.20;;;128.80;1843.20;;;;;;4976176;28;20147;-66
2021/01/21 03:54:08;;;;;;;39.38;24.00;;;128.80;1843.20;;;;;;4976079;28;20031;-67
2021/01/21 03:56:34;;;;;;;35.47;23.63;;;128.80;1843.20;;;;;;4975884;28;20389;-66
2021/01/21 03:59:00;;;;;;;56.00;24.35;;;128.80;1843.20;;;;;;4976075;28;20041;-67
2021/01/21 04:01:25;;;;;;;37.88;22.52;;;128.80;1843.20;;;;;;4976038;28;20353;-67
2021/01/21 04:03:51;;;;;;;43.50;23.63;;;128.90;1843.20;;;;;;4975208;28;20062;-66
2021/01/21 04:06:17;;;;;;;38.15;23.00;;;128.90;1894.40;;;;;;4976004;28;20026;-66
2021/01/21 04:08:42;;;;;;;42.35;23.60;;;128.90;1868.80;;;;;;4974011;28;20480;-66
2021/01/21 04:11:08;;;;;;;41.10;23.73;;;128.90;1868.80;;;;;;4990000;28;20488;-67
2021/01/21 04:13:34;;;;;;;38.33;23.17;;;128.80;1843.20;;;;;;5014707;28;20100;-67
2021/01/21 04:15:59;;;;;;;37.78;23.13;;;128.80;1843.20;;;;;;5014417;28;20041;-66
2021/01/21 04:18:25;;;;;;;35.20;22.98;;;128.80;1843.20;;;;;;5014912;28;20029;-67
2021/01/21 04:20:51;;;;;;;35.17;22.20;;;128.80;1843.20;;;;;;5014612;28;20053;-67
2021/01/21 04:23:16;;;;;;;35.65;23.08;;;128.80;1843.20;;;;;;5014742;28;20030;-66
2021/01/21 04:25:42;;;;;;;37.50;22.98;;;128.90;1843.20;;;;;;5014532;28;20030;-68
2021/01/21 04:28:08;;;;;;;37.33;24.20;;;128.90;1843.20;;;;;;5014467;28;20383;-67
2021/01/21 04:30:33;;;;;;;40.05;22.70;;;128.90;1843.20;;;;;;5014090;28;20081;-66
2021/01/21 04:32:59;;;;;;;35.53;22.60;;;128.90;1868.80;;;;;;5014661;28;20041;-67
2021/01/21 04:35:25;;;;;;;33.53;21.95;;;128.90;1843.20;;;;;;5013885;28;20038;-67
2021/01/21 04:37:53;;;;;;;32.35;21.65;;;128.90;1843.20;;;;;;5013856;28;20029;-67
2021/01/21 04:40:19;;;;;;;35.03;23.30;;;128.90;1843.20;;;;;;5014261;28;20030;-66
2021/01/21 04:42:45;;;;;;;38.45;24.10;;;128.90;1843.20;;;;;;5014107;28;20025;-67
2021/01/21 04:45:11;;;;;;;34.20;22.23;;;128.90;1843.20;;;;;;5014416;28;20025;-66
2021/01/21 04:47:37;;;;;;;35.70;22.27;;;128.90;1843.20;;;;;;5014234;28;20076;-66
2021/01/21 04:50:05;;;;;;;37.78;22.30;;;128.90;1843.20;;;;;;5013606;28;20105;-66
2021/01/21 04:52:36;;;;;;;41.40;22.58;;;128.90;1843.20;;;;;;5014038;28;20050;-66
2021/01/21 04:55:16;;;;;;;32.45;21.38;;;128.90;1843.20;;;;;;5014201;28;20026;-67
2021/01/21 04:58:19;;;;;;;33.65;21.83;;;153.60;1843.20;;;;;;5014152;28;20025;-66
2021/01/21 05:00:46;;;;;;;37.00;23.50;;;128.90;1843.20;;;;;;4934439;29;20036;-68
2021/01/21 05:03:13;;;;;;;33.92;22.10;;;128.90;1843.20;;;;;;4934420;29;20044;-66
2021/01/21 05:05:40;;;;;;;39.85;23.05;;;128.90;1843.20;;;;;;4934558;29;20079;-67
2021/01/21 05:08:06;;;;;;;34.55;21.23;;;128.90;1843.20;;;;;;4934289;29;20106;-67
2021/01/21 05:10:33;;;;;;;35.30;21.55;;;128.90;1843.20;;;;;;4934144;29;20120;-66
2021/01/21 05:12:58;;;;;;;34.53;21.48;;;128.90;1843.20;;;;;;4933696;29;20024;-67
2021/01/21 05:15:24;;;;;;;34.28;21.23;;;128.90;1843.20;;;;;;4933436;29;20376;-66
2021/01/21 05:17:51;;;;;;;33.25;21.17;;;128.90;1843.20;;;;;;4933636;29;20071;-66
2021/01/21 05:20:16;;;;;;;37.10;21.40;;;128.90;1843.20;;;;;;4933660;29;20035;-67
2021/01/21 05:22:42;;;;;;;33.58;20.58;;;128.90;1843.20;;;;;;4933438;29;20032;-67
2021/01/21 05:25:08;;;;;;;35.15;21.52;;;128.90;1843.20;;;;;;4933410;29;20419;-67
2021/01/21 05:27:35;;;;;;;34.30;21.05;;;128.80;1843.20;;;;;;4933255;29;20044;-67
2021/01/21 05:30:03;;;;;;;36.78;22.15;;;128.90;1843.20;;;;;;4933346;29;20036;-67
2021/01/21 05:32:31;;;;;;;32.83;20.75;;;128.90;1843.20;;;;;;4933488;29;20115;-67
2021/01/21 05:34:59;;;;;;;30.73;20.45;;;128.90;1843.20;;;;;;4933162;29;20028;-67
2021/01/21 05:37:26;;;;;;;32.42;21.60;;;128.90;1843.20;;;;;;5012286;28;20104;-66
2021/01/21 05:39:52;;;;;;;33.53;20.85;;;128.90;1843.20;;;;;;5012523;28;20026;-67
2021/01/21 05:42:18;;;;;;;31.35;19.70;;;128.90;1843.20;;;;;;5012859;28;20026;-67
2021/01/21 05:44:45;;;;;;;33.38;20.52;;;128.90;1843.20;;;;;;5012749;28;20149;-67
2021/01/21 05:47:10;;;;;;;36.80;20.20;;;128.90;1843.20;;;;;;5012335;28;20050;-66
2021/01/21 05:49:36;;;;;;;33.85;20.33;;;128.90;1843.20;;;;;;5012440;28;20053;-67
2021/01/21 05:52:03;;;;;;;37.13;24.23;;;128.90;1843.20;;;;;;5012319;28;20463;-67
2021/01/21 05:54:30;;;;;;;37.05;24.23;;;128.90;1843.20;;;;;;5013376;28;20026;-67
2021/01/21 05:56:58;;;;;;;38.83;25.05;;;128.90;1843.20;;;;;;5015700;28;20033;-66
2021/01/21 05:59:27;;;;;;;35.97;23.90;;;128.90;1843.20;;;;;;5015734;28;20526;-67
2021/01/21 06:01:53;;;;;;;41.75;25.15;;;128.80;1843.20;;;;;;5015911;28;20113;-66
2021/01/21 06:04:24;;;;;;;37.63;24.15;;;128.90;1843.20;;;;;;5015867;28;20026;-67
2021/01/21 06:06:51;;;;;;;39.92;23.48;;;128.90;1843.20;;;;;;5015744;28;20084;-66
2021/01/21 06:09:28;;;;;;;43.67;25.02;;;128.90;1843.20;;;;;;5015687;28;20033;-67
2021/01/21 06:12:15;;;;;;;40.88;25.13;;;128.90;1843.20;;;;;;4993348;28;661835;-67
2021/01/21 06:14:41;;;;;;;46.03;27.40;;;128.90;1843.20;;;;;;5016988;28;20136;-66
2021/01/21 06:17:07;;;;;;;48.80;28.33;;;128.90;1843.20;;;;;;5016794;28;20065;-66
2021/01/21 06:19:33;;;;;;;58.90;35.33;;;128.90;1843.20;;;;;;5016712;28;20057;-67
2021/01/21 06:22:08;;;;;;;51.45;33.30;;;128.90;1843.20;;;;;;5016802;28;20108;-66
2021/01/21 06:24:43;;;;;;;41.42;28.13;;;128.90;1843.20;;;;;;5016654;28;20022;-67
2021/01/21 06:27:10;;;;;;;39.03;24.17;;;128.90;1843.20;;;;;;5016715;28;20080;-67
2021/01/21 06:29:37;;;;;;;38.38;23.15;;;128.90;1843.20;;;;;;5016954;28;20029;-68
2021/01/21 06:32:04;;;;;;;37.88;24.05;;;128.90;1843.20;;;;;;5016547;28;20026;-69
2021/01/21 06:34:38;;;;;;;38.72;21.95;;;128.90;1843.20;;;;;;5016580;28;20034;-68
2021/01/21 06:37:06;;;;;;;35.13;22.73;;;128.90;1843.20;;;;;;5016450;28;20034;-67
2021/01/21 06:40:05;;;;;;;31.45;20.80;;;128.90;1843.20;;;;;;5016344;28;20026;-67
2021/01/21 06:42:34;;;;;;;31.48;20.67;;;128.90;1843.20;;;;;;5016176;28;20029;-68
2021/01/21 06:45:02;;;;;;;32.55;19.85;;;128.90;1843.20;;;;;;5016076;28;20491;-67
2021/01/21 06:47:29;;;;;;;31.05;19.48;;;128.90;1843.20;;;;;;5016096;28;20498;-66
2021/01/21 06:49:57;;;;;;;30.48;19.35;;;128.90;1843.20;;;;;;5016353;28;20074;-66
2021/01/21 06:52:26;;;;;;;30.92;19.90;;;128.90;1843.20;;;;;;5016226;28;20029;-66
2021/01/21 06:54:52;;;;;;;37.78;21.17;;;128.90;1843.20;;;;;;5016111;28;20022;-67
2021/01/21 06:57:33;;;;;;;36.80;20.38;;;153.60;1843.20;;;;;;5016051;28;20034;-66
2021/01/21 06:59:59;;;;;;;46.55;27.00;;;153.60;1868.80;;;;;;5016144;28;20017;-66
2021/01/21 07:02:45;;;;;;;72.78;33.38;;;153.60;1843.20;;;;;;5016118;28;20046;-66
2021/01/21 07:05:18;;;;;;;84.97;35.97;;;153.60;1843.20;;;;;;5015788;28;20030;-66
2021/01/21 07:07:56;;;;;;;87.15;37.95;;;153.70;1843.20;;;;;;5015327;28;20021;-65
2021/01/21 07:10:41;;;;;;;97.55;42.90;;;153.70;1843.20;;;;;;5015546;28;20022;-66
2021/01/21 07:13:14;;;;;;;81.45;38.95;;;153.80;1868.80;;;;;;5015791;28;20372;-68
2021/01/21 07:15:43;;;;;;;62.25;32.03;;;153.70;1868.80;;;;;;5015697;28;20095;-65
2021/01/21 07:18:23;;;;;;;46.53;26.33;;;153.80;1843.20;;;;;;5015653;28;20026;-65
2021/01/21 07:21:07;;;;;;;40.63;22.15;;;153.90;1843.20;;;;;;5015435;28;20026;-66
2021/01/21 07:23:47;;;;;;;27.80;18.75;;;153.90;1843.20;;;;;;5015658;28;20380;-65
2021/01/21 07:26:20;;;;;;;31.90;19.40;;;153.90;1843.20;;;;;;5015627;28;20072;-65
2021/01/21 07:28:56;;;;;;;32.97;20.75;;;154.00;1843.20;;;;;;5015547;28;20018;-68
2021/01/21 07:31:21;;;;;;;33.58;22.25;;;154.00;1843.20;;;;;;5015363;28;20121;-66
2021/01/21 07:33:47;;;;;;;32.25;22.25;;;154.10;1843.20;;;;;;5016057;28;20105;-65
2021/01/21 07:36:29;;;;;;;30.02;20.52;;;154.00;1843.20;;;;;;5015316;28;20117;-68
2021/01/21 07:38:55;;;;;;;31.20;19.20;;;154.10;1843.20;;;;;;5015287;28;20113;-66
2021/01/21 07:41:46;;;;;;;32.53;20.35;;;154.10;1817.60;;;;;;5015360;28;20101;-68
2021/01/21 07:44:12;;;;;;;35.30;21.65;;;154.20;1843.20;;;;;;5014745;28;20583;-66
2021/01/21 07:46:38;;;;;;;34.03;20.77;;;154.30;1817.60;;;;;;5015323;28;20030;-65
2021/01/21 07:49:27;;;;;;;33.15;19.92;;;154.20;1817.60;;;;;;5015097;28;20072;-65
2021/01/21 07:52:03;;;;;;;32.35;20.23;;;154.30;1817.60;;;;;;5015154;28;20022;-66
2021/01/21 07:54:30;;;;;;;29.27;18.73;;;154.30;1817.60;;;;;;5015138;28;20037;-66
2021/01/21 07:56:56;;;;;;;30.67;18.35;;;154.40;1817.60;;;;;;5014808;28;20038;-66
2021/01/21 07:59:22;;;;;;;27.67;17.90;;;154.40;1817.60;;;;;;5014835;28;20387;-66
2021/01/21 08:01:58;;;;;;;26.08;19.00;;;154.50;1817.60;;;;;;5015051;28;20018;-66
2021/01/21 08:04:24;;;;;;;23.52;17.35;;;154.50;1817.60;;;;;;5014428;28;20061;-65
2021/01/21 08:06:57;;;;;;;30.38;17.95;;;154.50;1817.60;;;;;;5014897;28;20034;-65
2021/01/21 08:09:24;;;;;;;27.15;18.67;;;179.20;1817.60;;;;;;5014616;28;20494;-66
2021/01/21 08:11:52;;;;;;;38.53;22.90;;;179.20;1817.60;;;;;;5014619;28;20049;-66
2021/01/21 08:14:18;;;;;;;41.53;23.15;;;179.20;1817.60;;;;;;5014600;28;20030;-65
2021/01/21 08:16:46;;;;;;;34.55;21.73;;;179.30;1817.60;;;;;;5014481;28;20041;-65
2021/01/21 08:19:13;;;;;;;32.90;20.20;;;179.30;1817.60;;;;;;5014297;28;20026;-65
2021/01/21 08:21:39;;;;;;;33.10;19.80;;;179.40;1817.60;;;;;;5014404;28;20025;-66
2021/01/21 08:24:08;;;;;;;36.08;21.98;;;179.40;1817.60;;;;;;5014799;28;20025;-65
2021/01/21 08:26:36;;;;;;;34.65;20.63;;;179.50;1817.60;;;;;;5014579;28;20105;-65
2021/01/21 08:29:08;;;;;;;32.90;21.73;;;179.50;1817.60;;;;;;5014551;28;20072;-67
2021/01/21 08:31:47;;;;;;;32.55;19.88;;;179.50;1817.60;;;;;;5014442;28;20109;-65
2021/01/21 08:34:25;;;;;;;27.67;19.17;;;179.60;1817.60;;;;;;5014443;28;20022;-66
2021/01/21 08:37:02;;;;;;;29.98;18.95;;;179.70;1817.60;;;;;;5014287;28;20034;-66
2021/01/21 08:39:28;;;;;;;31.88;19.88;;;179.80;1817.60;;;;;;4996431;28;20503;-66
2021/01/21 08:41:54;;;;;;;40.15;21.90;;;179.90;1792.00;;;;;;5014267;28;20030;-66
2021/01/21 08:44:20;;;;;;;39.83;23.05;;;180.10;1792.00;;;;;;5014216;28;20545;-66
2021/01/21 08:46:59;;;;;;;42.53;23.70;;;204.90;1792.00;;;;;;5011214;28;20403;-68
2021/01/21 08:49:25;;;;;;;41.70;24.23;;;205.10;1792.00;;;;;;4995821;28;20022;-68
2021/01/21 08:52:06;;;;;;;44.90;22.77;;;205.30;1740.80;;;;;;5013209;28;20018;-68
2021/01/21 08:54:32;;;;;;;40.22;22.73;;;205.50;1740.80;;;;;;5012850;28;20495;-68
2021/01/21 08:57:11;;;;;;;42.00;22.98;;;205.60;1689.60;;;;;;5012957;28;20034;-67
2021/01/21 08:59:38;;;;;;;39.88;22.63;;;230.40;1664.00;;;;;;5012898;28;20026;-68
2021/01/21 09:02:04;;;;;;;40.58;22.70;;;230.50;1664.00;;;;;;5013031;28;20022;-68
2021/01/21 09:04:35;;;;;;;47.25;24.77;;;230.60;1638.40;;;;;;5012943;28;20033;-68
2021/01/21 09:07:01;;;;;;;46.90;24.33;;;230.70;1638.40;;;;;;5012834;28;20471;-68
2021/01/21 09:09:34;;;;;;;33.95;22.15;;;230.80;1612.80;;;;;;5012592;28;20076;-68
2021/01/21 09:12:23;;;;;;;35.50;22.60;;;230.90;1612.80;;;;;;5012836;28;20065;-68
2021/01/21 09:15:12;;;;;;;33.63;21.55;;;231.10;1612.80;;;;;;5007669;28;20076;-68
2021/01/21 09:17:40;;;;;;;32.55;20.23;;;231.10;1612.80;;;;;;5013104;28;20530;-68
2021/01/21 09:20:26;;;;;;;32.40;17.60;;;231.20;1587.20;;;;;;5012885;28;20042;-68
2021/01/21 09:22:53;;;;;;;33.00;18.20;;;231.30;1587.20;;;;;;4994882;28;20049;-68
2021/01/21 09:25:26;;;;;;;34.58;19.13;;;256.00;1587.20;;;;;;5008855;28;20117;-68
2021/01/21 09:27:53;;;;;;;32.20;19.90;;;256.20;1587.20;;;;;;5009664;28;20345;-68
2021/01/21 09:30:20;;;;;;;34.72;20.52;;;256.30;1561.60;;;;;;5014900;28;20097;-68
2021/01/21 09:32:45;;;;;;;34.85;20.85;;;256.30;1561.60;;;;;;5016684;28;20057;-68
2021/01/21 09:35:19;;;;;;;37.03;21.00;;;256.30;1561.60;;;;;;5015826;28;20045;-68
2021/01/21 09:37:56;;;;;;;34.08;20.13;;;256.30;1561.60;;;;;;5016272;28;20029;-68
2021/01/21 09:40:30;;;;;;;32.65;18.67;;;256.40;1561.60;;;;;;5016655;28;20096;-68
2021/01/21 09:42:58;;;;;;;33.38;18.88;;;256.40;1561.60;;;;;;5016627;28;20472;-68
2021/01/21 09:45:25;;;;;;;35.28;17.50;;;256.40;1536.00;;;;;;5014372;28;20037;-68
2021/01/21 09:47:52;;;;;;;31.63;17.58;;;256.60;1561.60;;;;;;5016416;28;20105;-68
2021/01/21 09:50:18;;;;;;;28.50;16.92;;;256.70;1561.60;;;;;;5024539;28;20356;-67
2021/01/21 09:52:44;;;;;;;36.00;20.25;;;256.80;1561.60;;;;;;5024090;28;20022;-68
2021/01/21 09:55:11;;;;;;;34.47;19.40;;;256.90;1536.00;;;;;;5024473;28;20037;-68
2021/01/21 09:57:37;;;;;;;37.97;20.90;;;281.70;1561.60;;;;;;5026624;28;20063;-68
2021/01/21 10:00:04;;;;;;;34.63;20.67;;;281.80;1561.60;;;;;;5025264;28;20025;-67
2021/01/21 10:02:30;;;;;;;36.03;18.85;;;281.90;1561.60;;;;;;5033025;28;20513;-67
2021/01/21 10:04:56;;;;;;;33.50;18.55;;;282.10;1536.00;;;;;;5036025;28;20051;-68
2021/01/21 10:07:21;;;;;;;38.50;19.05;;;282.20;1536.00;;;;;;5031670;28;20072;-67
2021/01/21 10:09:47;;;;;;;39.65;21.05;;;282.30;1536.00;;;;;;5010011;28;20033;-68
2021/01/21 10:12:13;;;;;;;28.75;17.45;;;282.50;1561.60;;;;;;5034761;28;20453;-68
2021/01/21 10:14:39;;;;;;;27.50;14.57;;;307.30;1561.60;;;;;;5035218;28;20049;-68
2021/01/21 10:17:07;;;;;;;24.23;14.20;;;307.40;1561.60;;;;;;5031387;28;20434;-68
2021/01/21 10:19:33;;;;;;;22.23;13.52;;;307.40;1536.00;;;;;;5029418;28;20033;-68
2021/01/21 10:21:59;;;;;;;21.63;12.80;;;307.50;1536.00;;;;;;5028484;28;20057;-68
2021/01/21 10:24:26;;;;;;;24.17;13.07;;;307.60;1510.40;;;;;;5026033;28;20013;-68
2021/01/21 10:26:51;;;;;;;22.55;14.25;;;307.80;1536.00;;;;;;5025488;28;20096;-67
2021/01/21 10:29:18;;;;;;;34.50;16.08;;;307.90;1510.40;;;;;;5023657;28;20121;-68
2021/01/21 10:31:45;;;;;;;21.60;12.35;;;308.00;1510.40;;;;;;5026189;28;20030;-68
2021/01/21 10:34:10;;;;;;;28.50;16.02;;;308.10;1510.40;;;;;;5025231;28;20037;-68
2021/01/21 10:36:36;;;;;;;35.33;20.10;;;332.80;1536.00;;;;;;5023439;28;20107;-68
2021/01/21 10:39:06;;;;;;;32.72;17.95;;;333.00;1510.40;;;;;;5026130;28;20024;-68
2021/01/21 10:41:32;;;;;;;25.67;15.43;;;333.10;1484.80;;;;;;5024814;28;20471;-68
2021/01/21 10:43:58;;;;;;;23.23;14.00;;;333.10;1484.80;;;;;;5023382;28;20615;-68
2021/01/21 10:46:24;;;;;;;23.50;12.30;;;333.20;1510.40;;;;;;5025828;28;20017;-67
2021/01/21 10:48:50;;;;;;;19.63;12.13;;;333.30;1484.80;;;;;;5024595;28;20022;-68
2021/01/21 10:51:16;;;;;;;19.63;11.98;;;333.30;1510.40;;;;;;5023582;28;20021;-68
2021/01/21 10:53:41;;;;;;;22.73;11.68;;;333.40;1484.80;;;;;;5032199;28;20025;-68
2021/01/21 10:56:07;;;;;;;20.92;11.68;;;333.50;1484.80;;;;;;5034851;28;20083;-68
2021/01/21 10:58:33;;;;;;;19.48;12.02;;;333.50;1484.80;;;;;;5034487;28;20120;-69
2021/01/21 11:00:59;;;;;;;18.65;11.30;;;333.60;1484.80;;;;;;5025691;28;20021;-68
2021/01/21 11:03:25;;;;;;;22.35;12.77;;;333.60;1484.80;;;;;;5015066;28;20022;-68
2021/01/21 11:05:51;;;;;;;17.42;11.65;;;333.70;1484.80;;;;;;5015798;28;20036;-68
2021/01/21 11:08:17;;;;;;;24.15;12.45;;;333.70;1484.80;;;;;;5028832;28;20025;-68
2021/01/21 11:10:43;;;;;;;18.27;11.60;;;358.40;1484.80;;;;;;5027048;28;20107;-69
2021/01/21 11:13:16;;;;;;;29.58;12.73;;;358.60;1484.80;;;;;;5032638;28;20037;-69
2021/01/21 11:15:42;;;;;;;20.88;10.50;;;358.60;1484.80;;;;;;5023835;28;20124;-68
2021/01/21 11:18:07;;;;;;;26.15;10.25;;;358.70;1459.20;;;;;;5016008;28;20046;-69
2021/01/21 11:20:34;;;;;;;17.30;10.48;;;358.80;1459.20;;;;;;5014366;28;20057;-68
2021/01/21 11:23:01;;;;;;;15.95;10.68;;;358.80;1459.20;;;;;;5014789;28;20053;-69
2021/01/21 11:25:26;;;;;;;17.92;10.82;;;358.80;1433.60;;;;;;5014697;28;20034;-68
2021/01/21 11:27:53;;;;;;;24.08;14.00;;;358.90;1433.60;;;;;;5013880;28;20040;-68
2021/01/21 11:30:19;;;;;;;21.90;15.00;;;358.90;1433.60;;;;;;5014451;28;20026;-68
2021/01/21 11:32:45;;;;;;;30.30;14.70;;;359.00;1433.60;;;;;;5014128;28;20021;-68
2021/01/21 11:35:11;;;;;;;26.10;16.40;;;359.00;1433.60;;;;;;5013903;28;20030;-67
2021/01/21 11:37:37;;;;;;;24.60;16.17;;;359.10;1433.60;;;;;;5014664;28;20377;-67
2021/01/21 11:40:04;;;;;;;32.30;17.00;;;359.20;1433.60;;;;;;5014553;28;20026;-67
2021/01/21 11:42:30;;;;;;;28.25;16.98;;;359.30;1459.20;;;;;;5017660;28;20052;-69
2021/01/21 11:44:56;;;;;;;26.50;15.27;;;359.30;1459.20;;;;;;5021698;28;20510;-68
2021/01/21 11:47:21;;;;;;;22.73;14.32;;;384.00;1484.80;;;;;;5006234;28;20025;-68
2021/01/21 11:49:47;;;;;;;32.50;18.92;;;384.00;1459.20;;;;;;5022185;28;20018;-68
2021/01/21 11:52:13;;;;;;;35.40;20.23;;;384.10;1459.20;;;;;;5021744;28;20547;-68
2021/01/21 11:54:39;;;;;;;27.45;18.08;;;384.10;1459.20;;;;;;5023629;28;20049;-68
2021/01/21 11:57:05;;;;;;;30.48;19.05;;;384.10;1459.20;;;;;;5021737;28;20030;-68
2021/01/21 11:59:31;;;;;;;40.35;22.33;;;384.10;1459.20;;;;;;5022844;28;20086;-68
2021/01/21 12:01:56;;;;;;;34.22;21.33;;;384.20;1459.20;;;;;;5023903;28;20094;-68
2021/01/21 12:04:22;;;;;;;31.60;20.10;;;384.20;1459.20;;;;;;5023558;28;20473;-68
2021/01/21 12:06:48;;;;;;;41.95;24.13;;;384.10;1433.60;;;;;;5021675;28;20380;-68